Time;durP1;ratioP1;P1;durP2;ratioP2;P2;SDS_P1;SDS_P2;PMS_P1;PMS_P2;Temp;Humidity;BMP_temperature;BMP_pressure;BME280_temperature;BME280_humidity;BME280_pressure;Samples;Min_cycle;Max_cycle;Signal;HPM_P1;HPM_P2
2022/09/04 00:00:07;;;;;;;3.27;2.10;;;;;;;;;;5071131;28;20469;-66
2022/09/04 00:02:45;;;;;;;4.73;2.20;;;;;;;;;;5070455;28;20453;-66
2022/09/04 00:05:15;;;;;;;3.40;2.20;;;;;;;;;;5069703;28;20503;-67
2022/09/04 00:07:56;;;;;;;5.43;2.30;;;;;;;;;;5071281;28;20445;-68
2022/09/04 00:10:28;;;;;;;3.90;2.10;;;;;;;;;;5071076;28;20456;-66
2022/09/04 00:13:02;;;;;;;4.30;2.50;;;;;;;;;;5070270;28;20613;-66
2022/09/04 00:15:35;;;;;;;3.57;2.30;;;;;;;;;;5070632;28;20505;-66
2022/09/04 00:18:05;;;;;;;3.97;2.40;;;;;;;;;;5070715;28;20453;-66
2022/09/04 00:20:36;;;;;;;5.27;2.43;;;;;;;;;;5058615;28;20456;-66
2022/09/04 00:23:07;;;;;;;2.83;2.20;;;;;;;;;;5069775;28;20442;-66
2022/09/04 00:25:39;;;;;;;3.33;2.27;;;;;;;;;;5070568;28;20568;-68
2022/09/04 00:28:12;;;;;;;3.23;2.10;;;;;;;;;;5070278;28;20452;-67
2022/09/04 00:30:49;;;;;;;3.97;3.13;;;;;;;;;;5070599;28;20446;-67
2022/09/04 00:33:19;;;;;;;3.77;3.07;;;;;;;;;;5070023;28;20469;-66
2022/09/04 00:35:49;;;;;;;3.23;2.00;;;;;;;;;;5070831;28;20567;-66
2022/09/04 00:38:18;;;;;;;4.97;2.97;;;;;;;;;;5070478;28;20467;-66
2022/09/04 00:40:47;;;;;;;3.60;2.50;;;;;;;;;;5070359;28;20787;-66
2022/09/04 00:43:27;;;;;;;4.40;2.47;;;;;;;;;;5070011;28;20449;-66
2022/09/04 00:46:04;;;;;;;3.80;2.50;;;;;;;;;;5070042;28;20790;-66
2022/09/04 00:48:45;;;;;;;3.50;2.70;;;;;;;;;;5070371;28;20445;-66
2022/09/04 00:51:23;;;;;;;4.03;2.50;;;;;;;;;;5069669;28;20464;-66
2022/09/04 00:54:05;;;;;;;3.13;2.33;;;;;;;;;;5069520;28;20817;-67
2022/09/04 00:56:47;;;;;;;2.13;1.73;;;;;;;;;;5046880;28;20992;-66
2022/09/04 00:59:23;;;;;;;2.10;1.90;;;;;;;;;;5069844;28;20446;-65
2022/09/04 01:01:54;;;;;;;3.50;2.20;;;;;;;;;;5069617;28;20449;-66
2022/09/04 01:04:33;;;;;;;3.00;2.53;;;;;;;;;;5069748;28;20442;-66
2022/09/04 01:07:09;;;;;;;3.30;3.00;;;;;;;;;;5070114;28;20446;-66
2022/09/04 01:09:50;;;;;;;2.60;2.23;;;;;;;;;;5069795;28;20456;-66
2022/09/04 01:12:24;;;;;;;6.07;2.57;;;;;;;;;;5069957;28;20441;-66
2022/09/04 01:14:56;;;;;;;3.83;2.60;;;;;;;;;;5063479;28;20512;-66
2022/09/04 01:17:26;;;;;;;4.10;2.60;;;;;;;;;;5070069;28;20534;-66
2022/09/04 01:19:56;;;;;;;4.33;2.60;;;;;;;;;;5067724;28;20445;-66
2022/09/04 01:22:34;;;;;;;3.20;2.40;;;;;;;;;;5069543;28;20535;-66
2022/09/04 01:25:09;;;;;;;3.97;2.47;;;;;;;;;;5069752;28;20850;-66
2022/09/04 01:27:44;;;;;;;3.27;2.20;;;;;;;;;;5069671;28;20812;-66
2022/09/04 01:30:13;;;;;;;3.70;2.60;;;;;;;;;;5069352;28;20504;-66
2022/09/04 01:32:44;;;;;;;4.37;2.80;;;;;;;;;;5069152;28;20988;-66
2022/09/04 01:35:16;;;;;;;5.50;2.90;;;;;;;;;;5064849;28;20477;-66
2022/09/04 01:37:48;;;;;;;4.63;2.47;;;;;;;;;;5069924;28;20468;-66
2022/09/04 01:40:31;;;;;;;2.80;2.47;;;;;;;;;;5069961;28;20804;-66
2022/09/04 01:43:02;;;;;;;3.10;2.27;;;;;;;;;;5068814;28;20461;-66
2022/09/04 01:45:34;;;;;;;4.90;2.53;;;;;;;;;;5069999;28;20449;-66
2022/09/04 01:48:03;;;;;;;3.87;2.70;;;;;;;;;;5069497;28;20445;-66
2022/09/04 01:50:31;;;;;;;3.57;2.57;;;;;;;;;;5069644;28;20457;-66
2022/09/04 01:53:03;;;;;;;5.50;3.20;;;;;;;;;;5055467;28;20450;-66
2022/09/04 01:55:35;;;;;;;2.97;2.07;;;;;;;;;;5069654;28;20542;-66
2022/09/04 01:58:09;;;;;;;3.60;2.43;;;;;;;;;;5069265;28;20533;-66
2022/09/04 02:00:41;;;;;;;2.97;2.23;;;;;;;;;;5069488;28;20457;-66
2022/09/04 02:03:13;;;;;;;5.43;2.63;;;;;;;;;;5071748;28;20549;-66
2022/09/04 02:05:48;;;;;;;4.37;2.53;;;;;;;;;;5073488;28;20865;-66
2022/09/04 02:08:23;;;;;;;3.33;2.73;;;;;;;;;;5073195;28;20460;-66
2022/09/04 02:10:53;;;;;;;3.63;2.00;;;;;;;;;;5066861;28;20445;-66
2022/09/04 02:13:23;;;;;;;3.07;1.80;;;;;;;;;;5072667;28;20445;-66
2022/09/04 02:15:57;;;;;;;4.03;2.40;;;;;;;;;;5073192;28;20484;-67
2022/09/04 02:18:30;;;;;;;4.93;2.50;;;;;;;;;;5073108;28;20442;-67
2022/09/04 02:21:00;;;;;;;2.87;2.07;;;;;;;;;;5072658;28;20533;-66
2022/09/04 02:23:31;;;;;;;3.30;2.23;;;;;;;;;;5072603;28;20978;-66
2022/09/04 02:26:00;;;;;;;2.57;2.20;;;;;;;;;;5072638;28;20905;-66
2022/09/04 02:28:34;;;;;;;2.23;1.77;;;;;;;;;;5072973;28;20517;-66
2022/09/04 02:31:05;;;;;;;3.07;2.17;;;;;;;;;;5072657;28;20810;-66
2022/09/04 02:33:38;;;;;;;2.77;2.07;;;;;;;;;;5072670;28;20520;-66
2022/09/04 02:36:08;;;;;;;3.60;1.93;;;;;;;;;;5072758;28;20481;-66
2022/09/04 02:38:40;;;;;;;3.73;2.33;;;;;;;;;;5073185;28;20450;-66
2022/09/04 02:41:11;;;;;;;3.37;2.33;;;;;;;;;;5072462;28;20467;-66
2022/09/04 02:43:47;;;;;;;3.53;2.00;;;;;;;;;;5071955;28;20525;-66
2022/09/04 02:46:21;;;;;;;2.80;1.87;;;17.60;99.90;;;;;;5072823;28;20576;-66
2022/09/04 02:48:56;;;;;;;3.50;2.10;;;;;;;;;;5072827;28;20487;-66
2022/09/04 02:51:29;;;;;;;3.60;1.70;;;;;;;;;;5070059;28;20455;-66
2022/09/04 02:54:02;;;;;;;3.00;2.33;;;;;;;;;;5071378;28;20980;-66
2022/09/04 02:56:34;;;;;;;2.30;2.00;;;;;;;;;;5072613;28;21020;-66
2022/09/04 02:59:16;;;;;;;2.80;2.00;;;;;;;;;;5071800;28;20466;-66
2022/09/04 03:01:46;;;;;;;3.50;2.10;;;;;;;;;;5072558;28;20990;-66
2022/09/04 03:04:16;;;;;;;2.80;1.87;;;;;;;;;;5071421;28;20446;-66
2022/09/04 03:06:47;;;;;;;3.60;2.03;;;;;;;;;;5072460;28;20457;-66
2022/09/04 03:09:17;;;;;;;2.30;1.90;;;;;;;;;;5065997;28;20524;-66
2022/09/04 03:11:47;;;;;;;3.40;1.97;;;;;;;;;;5072138;28;20528;-66
2022/09/04 03:14:18;;;;;;;2.60;1.97;;;;;;;;;;5071262;28;20450;-66
2022/09/04 03:16:48;;;;;;;3.30;1.93;;;;;;;;;;5072143;28;20487;-66
2022/09/04 03:19:18;;;;;;;4.93;2.60;;;;;;;;;;5072450;28;20756;-66
2022/09/04 03:21:49;;;;;;;1.83;1.43;;;;;;;;;;5072121;28;20449;-66
2022/09/04 03:24:21;;;;;;;3.77;2.40;;;;;;;;;;5071581;28;20467;-65
2022/09/04 03:26:50;;;;;;;4.63;2.17;;;;;;;;;;5072234;28;20471;-66
2022/09/04 03:29:23;;;;;;;2.83;1.90;;;;;;;;;;5071627;28;20445;-66
2022/09/04 03:31:54;;;;;;;2.03;1.73;;;;;;;;;;5071318;28;20443;-66
2022/09/04 03:34:33;;;;;;;3.20;2.23;;;;;;;;;;5071170;28;20560;-66
2022/09/04 03:37:15;;;;;;;2.93;1.93;;;;;;;;;;5060970;28;21002;-65
2022/09/04 03:39:46;;;;;;;4.10;2.10;;;;;;;;;;5069131;28;20954;-66
2022/09/04 03:42:18;;;;;;;3.60;1.90;;;;;;;;;;5062976;28;20460;-66
2022/09/04 03:44:55;;;;;;;3.93;1.93;;;;;;;;;;5070970;28;20914;-66
2022/09/04 03:47:29;;;;;;;3.97;1.93;;;;;;;;;;5071720;28;20449;-66
2022/09/04 03:50:02;;;;;;;1.63;1.53;;;;;;;;;;5070349;28;20454;-66
2022/09/04 03:52:35;;;;;;;2.57;1.97;;;;;;;;;;5071132;28;20556;-66
2022/09/04 03:55:22;;;;;;;3.57;2.10;;;;;;;;;;5071115;28;20476;-66
2022/09/04 03:57:56;;;;;;;2.27;1.50;;;;;;;;;;5065034;28;20453;-65
2022/09/04 04:00:24;;;;;;;2.77;1.83;;;;;;;;;;5065291;28;20528;-66
2022/09/04 04:03:03;;;;;;;2.20;2.00;;;;;;;;;;5070064;28;20446;-66
2022/09/04 04:05:37;;;;;;;2.73;1.80;;;;;;;;;;5071242;28;20446;-66
2022/09/04 04:08:13;;;;;;;2.23;1.50;;;;;;;;;;5070788;28;20441;-66
2022/09/04 04:10:48;;;;;;;2.00;1.73;;;;;;;;;;5071000;28;20541;-66
2022/09/04 04:13:23;;;;;;;2.77;2.07;;;;;;;;;;5070537;28;20456;-66
2022/09/04 04:15:58;;;;;;;2.30;1.80;;;;;;;;;;5070654;28;20481;-66
2022/09/04 04:18:35;;;;;;;2.80;1.80;;;;;;;;;;5070679;28;20531;-66
2022/09/04 04:21:04;;;;;;;4.03;2.50;;;;;;;;;;5070456;28;20555;-66
2022/09/04 04:23:43;;;;;;;2.90;2.10;;;;;;;;;;5070285;28;20793;-65
2022/09/04 04:26:11;;;;;;;2.60;1.93;;;;;;;;;;5070271;28;20688;-66
2022/09/04 04:28:58;;;;;;;2.37;1.63;;;;;;;;;;5070162;28;20450;-65
2022/09/04 04:31:33;;;;;;;2.17;1.50;;;;;;;;;;5070495;28;20508;-65
2022/09/04 04:34:03;;;;;;;1.83;1.50;;;;;;;;;;5069735;28;20870;-66
2022/09/04 04:36:35;;;;;;;2.07;1.87;;;;;;;;;;5070672;28;20492;-66
2022/09/04 04:39:10;;;;;;;2.40;1.80;;;;;;;;;;5070035;28;20457;-66
2022/09/04 04:45:48;;;;;;;3.67;1.80;;;;;;;;;;5068811;28;21118;-66
2022/09/04 04:47:22;;;;;;;2.80;2.00;;;;;;;;;;5069678;28;20441;-67
2022/09/04 04:49:58;;;;;;;3.17;1.97;;;;;;;;;;5058503;28;20454;-67
2022/09/04 04:52:29;;;;;;;3.03;2.17;;;;;;;;;;5069910;28;20780;-67
2022/09/04 04:55:05;;;;;;;2.70;2.03;;;;;;;;;;5070277;28;20461;-67
2022/09/04 04:57:35;;;;;;;3.13;2.00;;;;;;;;;;5070237;28;20607;-66
2022/09/04 05:00:05;;;;;;;2.17;1.70;;;;;;;;;;5069930;28;20453;-67
2022/09/04 05:02:36;;;;;;;2.20;1.77;;;;;;;;;;5069631;28;20450;-67
2022/09/04 05:05:11;;;;;;;2.83;1.87;;;;;;;;;;5070190;28;20456;-67
2022/09/04 05:07:41;;;;;;;2.27;1.70;;;;;;;;;;5069989;28;20801;-67
2022/09/04 05:10:12;;;;;;;3.47;2.20;;;;;;;;;;5069885;28;20545;-67
2022/09/04 05:12:52;;;;;;;3.83;2.30;;;;;;;;;;5069680;28;20871;-67
2022/09/04 05:15:21;;;;;;;2.70;1.80;;;;;;;;;;5070047;28;20460;-67
2022/09/04 05:17:51;;;;;;;4.73;1.70;;;;;;;;;;5069976;28;20480;-67
2022/09/04 05:20:24;;;;;;;3.00;2.07;;;;;;;;;;5070313;28;20453;-67
2022/09/04 05:22:57;;;;;;;2.40;1.90;;;;;;;;;;5069515;28;20851;-68
2022/09/04 05:25:27;;;;;;;2.40;2.03;;;;;;;;;;5070022;28;20572;-67
2022/09/04 05:28:03;;;;;;;3.03;2.00;;;;;;;;;;5069539;28;20452;-67
2022/09/04 05:30:34;;;;;;;2.60;1.93;;;;;;;;;;5069895;28;20453;-67
2022/09/04 05:33:06;;;;;;;3.10;1.93;;;;;;;;;;5069044;28;20508;-66
2022/09/04 05:35:36;;;;;;;3.27;2.50;;;;;;;;;;5070187;28;20450;-66
2022/09/04 05:38:08;;;;;;;3.07;2.33;;;;;;;;;;5072264;28;20985;-67
2022/09/04 05:40:45;;;;;;;2.33;1.97;;;;;;;;;;5073839;28;20461;-66
2022/09/04 05:43:17;;;;;;;3.40;1.80;;;;;;;;;;5073354;28;20451;-66
2022/09/04 05:45:49;;;;;;;2.13;1.77;;;;;;;;;;5073809;28;20465;-67
2022/09/04 05:48:22;;;;;;;2.00;1.80;;;;;;;;;;5073552;28;20457;-66
2022/09/04 05:50:53;;;;;;;2.63;2.10;;;;;;;;;;5073863;28;20448;-66
2022/09/04 05:53:31;;;;;;;4.40;2.30;;;;;;;;;;5073243;28;20503;-67
2022/09/04 05:56:06;;;;;;;2.67;2.23;;;;;;;;;;5073186;28;20833;-67
2022/09/04 05:59:02;;;;;;;3.80;2.43;;;;;;;;;;5073555;28;20552;-67
2022/09/04 06:01:41;;;;;;;2.20;1.70;;;;;;;;;;5070632;28;20464;-67
2022/09/04 06:04:22;;;;;;;3.00;2.43;;;;;;;;;;5072666;28;20502;-68
2022/09/04 06:06:57;;;;;;;2.90;2.27;;;;;;;;;;5073455;28;20461;-67
2022/09/04 06:09:40;;;;;;;4.50;2.57;;;;;;;;;;5073351;28;20445;-67
2022/09/04 06:12:17;;;;;;;2.93;2.63;;;;;;;;;;5070693;28;20518;-68
2022/09/04 06:14:55;;;;;;;3.00;1.93;;;;;;;;;;5073330;28;20464;-67
2022/09/04 06:17:30;;;;;;;2.63;2.40;;;;;;;;;;5069207;28;20484;-67
2022/09/04 06:20:17;;;;;;;4.70;2.33;;;;;;;;;;5072745;28;20539;-68
2022/09/04 06:22:56;;;;;;;2.47;1.70;;;;;;;;;;5072912;28;20447;-67
2022/09/04 06:25:34;;;;;;;4.40;2.27;;;;;;;;;;5072288;28;20477;-68
2022/09/04 06:28:07;;;;;;;2.53;1.77;;;;;;;;;;5072631;28;20448;-67
2022/09/04 06:30:37;;;;;;;3.00;2.47;;;;;;;;;;5072722;28;20967;-67
2022/09/04 06:33:15;;;;;;;3.70;2.30;;;;;;;;;;5071970;28;20808;-67
2022/09/04 06:35:52;;;;;;;3.00;2.10;;;;;;;;;;5072935;28;20473;-68
2022/09/04 06:38:27;;;;;;;2.20;2.00;;;;;;;;;;5062954;28;20809;-66
2022/09/04 06:41:01;;;;;;;7.40;2.60;;;;;;;;;;5072163;28;20482;-67
2022/09/04 06:43:33;;;;;;;3.50;2.47;;;;;;;;;;5072336;28;20460;-66
2022/09/04 06:46:08;;;;;;;2.80;2.03;;;;;;;;;;5072037;28;20496;-66
2022/09/04 06:48:41;;;;;;;2.93;2.33;;;;;;;;;;5072104;28;20453;-69
2022/09/04 06:51:17;;;;;;;7.90;2.50;;;;;;;;;;5070563;28;20457;-68
2022/09/04 06:53:52;;;;;;;2.90;2.23;;;;;;;;;;5072018;28;20449;-67
2022/09/04 06:56:29;;;;;;;3.60;2.23;;;;;;;;;;5063659;28;20453;-67
2022/09/04 06:59:08;;;;;;;3.23;2.30;;;;;;;;;;5071432;28;20548;-67
2022/09/04 07:01:39;;;;;;;2.73;2.07;;;;;;;;;;5072420;28;20449;-68
2022/09/04 07:04:13;;;;;;;4.00;3.17;;;;;;;;;;5071753;28;20453;-68
2022/09/04 07:06:49;;;;;;;10.03;2.90;;;;;;;;;;5072495;28;20452;-67
2022/09/04 07:09:19;;;;;;;2.23;2.03;;;;;;;;;;5059303;28;20445;-68
2022/09/04 07:11:56;;;;;;;3.47;2.40;;;;;;;;;;5072276;28;20442;-68
2022/09/04 07:14:41;;;;;;;4.00;2.00;;;;;;;;;;5071959;28;20437;-67
2022/09/04 07:17:15;;;;;;;2.30;1.53;;;;;;;;;;5071872;28;20516;-67
2022/09/04 07:20:03;;;;;;;2.77;1.97;;;;;;;;;;5073172;28;20514;-67
2022/09/04 07:22:46;;;;;;;2.70;2.13;;;;;;;;;;5060670;28;20446;-65
2022/09/04 07:25:17;;;;;;;2.27;1.90;;;;;;;;;;5071292;28;20473;-67
2022/09/04 07:27:54;;;;;;;2.47;1.90;;;;;;;;;;5072454;28;20543;-67
2022/09/04 07:30:24;;;;;;;2.60;1.97;;;;;;;;;;5071710;28;20499;-67
2022/09/04 07:32:54;;;;;;;3.10;2.00;;;;;;;;;;5069710;28;20692;-68
2022/09/04 07:35:25;;;;;;;2.80;2.20;;;;;;;;;;5068662;28;20464;-67
2022/09/04 07:37:57;;;;;;;2.37;1.77;;;;;;;;;;5070734;28;20477;-67
2022/09/04 07:40:27;;;;;;;2.57;2.00;;;;;;;;;;5064910;28;20794;-67
2022/09/04 07:42:56;;;;;;;1.97;1.63;;;;;;;;;;5069471;28;20449;-67
2022/09/04 07:45:29;;;;;;;3.07;2.43;;;;;;;;;;5064584;28;20970;-67
2022/09/04 07:48:05;;;;;;;1.87;1.50;;;;;;;;;;5071183;28;20445;-67
2022/09/04 07:50:34;;;;;;;2.07;1.40;;;;;;;;;;5059004;28;20465;-67
2022/09/04 07:53:13;;;;;;;2.60;1.47;;;;;;;;;;5071427;28;20438;-67
2022/09/04 07:55:45;;;;;;;1.87;1.40;;;;;;;;;;5070823;28;20454;-67
2022/09/04 07:58:19;;;;;;;2.07;1.80;;;;;;;;;;5071164;28;20472;-67
2022/09/04 08:00:55;;;;;;;1.90;1.60;;;;;;;;;;5068903;28;20531;-67
2022/09/04 08:03:31;;;;;;;4.20;2.20;;;;;;;;;;5063290;28;20829;-70
2022/09/04 08:06:05;;;;;;;1.70;1.50;;;15.30;99.90;;;;;;5069747;28;20456;-69
2022/09/04 08:09:06;;;;;;;1.97;1.50;;;20.30;99.90;;;;;;5070423;28;20437;-68
2022/09/04 08:12:13;;;;;;;2.60;1.93;;;20.30;99.90;;;;;;5071008;28;20436;-68
2022/09/04 08:14:56;;;;;;;1.70;1.40;;;20.40;99.90;;;;;;5071244;28;20438;-68
2022/09/04 08:17:48;;;;;;;2.47;1.83;;;20.50;99.90;;;;;;5067073;28;20481;-68
2022/09/04 08:20:26;;;;;;;2.00;1.80;;;20.50;99.90;;;;;;5070735;28;20529;-69
2022/09/04 08:23:00;;;;;;;2.70;1.70;;;20.60;99.90;;;;;;5070821;28;20912;-69
2022/09/04 08:25:29;;;;;;;2.43;1.90;;;20.70;99.90;;;;;;5070666;28;20477;-68
2022/09/04 08:28:16;;;;;;;1.43;1.33;;;21.00;99.90;;;;;;5070374;28;20453;-69
2022/09/04 08:30:54;;;;;;;2.00;1.50;;;21.00;99.90;;;;;;5070593;28;20513;-70
2022/09/04 08:33:30;;;;;;;2.13;1.90;;;;;;;;;;5070947;28;20837;-69
2022/09/04 08:36:01;;;;;;;1.87;1.50;;;;;;;;;;5070578;28;20843;-69
2022/09/04 08:38:35;;;;;;;1.83;1.10;;;;;;;;;;5070898;28;20568;-69
2022/09/04 08:41:21;;;;;;;2.70;1.70;;;;;;;;;;5070280;28;20439;-69
2022/09/04 08:44:05;;;;;;;2.03;1.77;;;;;;;;;;5070298;28;20461;-70
2022/09/04 08:46:47;;;;;;;2.07;1.60;;;;;;;;;;5063213;28;20521;-70
2022/09/04 08:49:29;;;;;;;1.77;1.50;;;;;;;;;;5056551;28;20489;-70
2022/09/04 08:52:17;;;;;;;2.50;1.80;;;;;;;;;;5050719;28;20802;-71
2022/09/04 08:55:13;;;;;;;1.50;1.23;;;;;;;;;;5059521;28;20450;-69
2022/09/04 08:57:53;;;;;;;1.90;1.40;;;;;;;;;;5067369;28;20592;-70
2022/09/04 09:00:21;;;;;;;1.47;1.30;;;;;;;;;;5067172;28;20665;-70
2022/09/04 09:03:14;;;;;;;1.20;1.00;;;;;;;;;;5068027;28;20796;-70
2022/09/04 09:06:05;;;;;;;1.57;1.30;;;;;;;;;;5068234;28;20444;-71
2022/09/04 09:08:45;;;;;;;2.37;1.63;;;;;;;;;;5063032;28;20496;-71
2022/09/04 09:11:27;;;;;;;1.70;1.53;;;;;;;;;;5066962;28;20791;-71
2022/09/04 09:14:14;;;;;;;2.03;1.30;;;;;;;;;;5068023;28;20795;-71
2022/09/04 09:16:43;;;;;;;3.07;1.60;;;;;;;;;;5067901;28;20442;-71
2022/09/04 09:19:20;;;;;;;1.80;1.40;;;;;;;;;;5065599;28;20493;-71
2022/09/04 09:21:53;;;;;;;2.90;1.57;;;;;;;;;;5067723;28;20442;-71
2022/09/04 09:24:38;;;;;;;1.53;1.43;;;;;;;;;;5067370;28;20484;-71
2022/09/04 09:27:17;;;;;;;1.60;1.37;;;;;;;;;;5066858;28;20477;-71
2022/09/04 09:29:51;;;;;;;1.87;1.10;;;;;;;;;;5066874;28;20456;-71
2022/09/04 09:32:33;;;;;;;1.47;1.17;;;;;;;;;;5067059;28;20441;-72
2022/09/04 09:35:16;;;;;;;3.60;2.00;;;;;;;;;;5066559;28;20453;-72
2022/09/04 09:38:10;;;;;;;2.27;1.70;;;;;;;;;;5066693;28;20610;-72
2022/09/04 09:41:08;;;;;;;2.33;1.43;;;21.30;1.00;;;;;;5015536;28;20464;-71
2022/09/04 09:44:29;;;;;;;1.37;1.00;;;22.50;99.90;;;;;;5029923;28;20465;-72
2022/09/04 09:47:44;;;;;;;2.63;1.73;;;22.40;84.20;;;;;;4997506;28;20836;-72
2022/09/04 09:50:39;;;;;;;2.00;1.10;;;22.20;1.00;;;;;;4995647;28;20864;-73
2022/09/04 09:53:37;;;;;;;1.50;1.40;;;22.10;99.90;;;;;;5054848;28;20481;-73
2022/09/04 09:56:29;;;;;;;1.90;1.50;;;22.20;99.90;;;;;;5067089;28;20830;-73
2022/09/04 09:59:15;;;;;;;1.40;1.10;;;;;;;;;;5066411;28;20486;-73
2022/09/04 10:02:00;;;;;;;1.80;1.20;;;;;;;;;;5066119;28;20438;-74
2022/09/04 10:04:38;;;;;;;1.60;1.30;;;;;;;;;;5066464;28;20528;-73
2022/09/04 10:07:20;;;;;;;1.27;0.97;;;;;;;;;;5066752;28;21010;-72
2022/09/04 10:10:05;;;;;;;1.63;1.10;;;;;;;;;;5066572;28;20540;-72
2022/09/04 10:12:41;;;;;;;1.30;1.20;;;;;;;;;;5063991;28;20456;-72
2022/09/04 10:15:28;;;;;;;2.17;1.40;;;;;;;;;;5066697;28;20450;-72
2022/09/04 10:18:18;;;;;;;1.93;1.30;;;;;;;;;;5061770;28;20485;-72
2022/09/04 10:21:10;;;;;;;1.37;1.27;;;;;;;;;;5065588;28;20485;-72
2022/09/04 10:24:10;;;;;;;1.70;1.40;;;;;;;;;;5068790;28;20457;-72
2022/09/04 10:27:08;;;;;;;1.97;1.53;;;;;;;;;;5070439;28;20446;-71
2022/09/04 10:29:50;;;;;;;1.80;1.67;;;;;;;;;;5064587;28;20449;-71
2022/09/04 10:32:35;;;;;;;1.50;1.30;;;;;;;;;;5070184;28;20457;-73
2022/09/04 10:35:17;;;;;;;1.97;1.63;;;;;;;;;;5070344;28;20949;-71
2022/09/04 10:37:54;;;;;;;1.83;1.03;;;;;;;;;;5070108;28;21067;-71
2022/09/04 10:40:34;;;;;;;1.23;1.13;;;;;;;;;;5069590;28;20456;-71
2022/09/04 10:43:11;;;;;;;2.07;1.80;;;;;;;;;;5069735;28;20720;-71
2022/09/04 10:45:42;;;;;;;4.00;1.93;;;;;;;;;;5068129;28;20441;-70
2022/09/04 10:48:30;;;;;;;0.90;0.80;;;;;;;;;;5059455;28;20779;-70
2022/09/04 10:51:07;;;;;;;2.13;0.97;;;;;;;;;;5069667;28;20462;-70
2022/09/04 10:53:55;;;;;;;1.70;1.27;;;;;;;;;;5063592;28;20802;-71
2022/09/04 10:56:27;;;;;;;1.57;1.47;;;;;;;;;;5070399;28;20508;-71
2022/09/04 10:59:08;;;;;;;1.37;1.10;;;;;;;;;;5069917;28;20477;-71
2022/09/04 11:01:54;;;;;;;1.37;1.27;;;;;;;;;;5069837;28;20914;-70
2022/09/04 11:04:54;;;;;;;2.40;1.30;;;;;;;;;;5028488;28;20477;-71
2022/09/04 11:07:33;;;;;;;1.33;1.07;;;;;;;;;;4988606;28;20532;-71
2022/09/04 11:10:17;;;;;;;1.30;1.10;;;;;;;;;;4987767;28;20800;-71
2022/09/04 11:13:02;;;;;;;1.33;1.07;;;;;;;;;;5034888;28;20437;-70
2022/09/04 11:15:46;;;;;;;1.73;1.30;;;;;;;;;;5071456;28;20464;-71
2022/09/04 11:18:24;;;;;;;1.63;1.10;;;;;;;;;;5068019;28;20481;-70
2022/09/04 11:21:10;;;;;;;1.03;0.93;;;;;;;;;;5069271;28;20449;-71
2022/09/04 11:23:54;;;;;;;1.53;0.90;;;;;;;;;;5069119;28;20803;-71
2022/09/04 11:26:44;;;;;;;1.20;1.10;;;;;;;;;;5069823;28;20470;-75
2022/09/04 11:29:28;;;;;;;1.93;1.67;;;;;;;;;;5065866;28;20932;-71
2022/09/04 11:32:11;;;;;;;1.37;1.03;;;;;;;;;;5039540;28;20519;-72
2022/09/04 11:34:56;;;;;;;2.10;1.10;;;;;;;;;;5068934;28;20452;-71
2022/09/04 11:37:42;;;;;;;1.50;0.90;;;;;;;;;;5061126;28;20811;-71
2022/09/04 11:40:31;;;;;;;1.90;1.10;;;;;;;;;;5065546;28;20489;-71
2022/09/04 11:43:14;;;;;;;1.20;0.97;;;;;;;;;;5036404;28;20445;-71
2022/09/04 11:45:48;;;;;;;1.40;1.13;;;;;;;;;;5068941;28;20872;-71
2022/09/04 11:48:30;;;;;;;1.43;1.30;;;;;;;;;;5069378;28;21233;-71
2022/09/04 11:51:22;;;;;;;1.57;1.27;;;;;;;;;;5035415;28;21004;-71
2022/09/04 11:54:03;;;;;;;1.30;1.20;;;;;;;;;;5069075;28;21013;-71
2022/09/04 11:56:37;;;;;;;1.00;0.90;;;;;;;;;;5069355;28;20460;-71
2022/09/04 11:59:11;;;;;;;1.00;0.90;;;;;;;;;;5068601;28;20854;-71
2022/09/04 12:01:56;;;;;;;3.03;1.37;;;;;;;;;;5068181;28;20453;-71
2022/09/04 12:04:42;;;;;;;1.40;1.20;;;;;;;;;;5057399;28;20449;-71
2022/09/04 12:07:17;;;;;;;1.13;1.03;;;;;;;;;;5068795;28;20463;-71
2022/09/04 12:09:51;;;;;;;2.90;1.37;;;;;;;;;;5067725;28;20832;-71
2022/09/04 12:12:30;;;;;;;1.00;0.90;;;;;;;;;;5068514;28;20809;-69
2022/09/04 12:15:08;;;;;;;1.20;1.10;;;;;;;;;;5067901;28;20455;-73
2022/09/04 12:17:55;;;;;;;1.20;0.93;;;;;;;;;;5068701;28;20453;-72
2022/09/04 12:20:44;;;;;;;1.40;1.13;;;;;;;;;;5066573;28;20489;-71
2022/09/04 12:23:31;;;;;;;1.20;1.10;;;;;;;;;;5068118;28;20434;-71
2022/09/04 12:26:15;;;;;;;1.30;1.10;;;;;;;;;;5067447;28;20465;-72
2022/09/04 12:29:01;;;;;;;1.33;1.20;;;;;;;;;;5065821;28;20472;-72
2022/09/04 12:31:51;;;;;;;1.30;1.00;;;;;;;;;;5027512;28;20822;-71
2022/09/04 12:34:31;;;;;;;2.30;1.50;;;;;;;;;;5068531;28;20441;-72
2022/09/04 12:37:20;;;;;;;1.20;1.00;;;;;;;;;;5068160;28;20957;-71
2022/09/04 12:40:17;;;;;;;1.53;1.40;;;;;;;;;;5067532;28;20477;-71
2022/09/04 12:42:47;;;;;;;1.27;1.17;;;;;;;;;;5006593;28;20448;-72
2022/09/04 12:45:21;;;;;;;1.93;1.40;;;;;;;;;;5053684;28;20442;-72
2022/09/04 12:47:57;;;;;;;3.27;1.77;;;;;;;;;;5068023;28;20450;-71
2022/09/04 12:50:30;;;;;;;1.10;1.00;;;;;;;;;;5067800;28;20433;-72
2022/09/04 12:53:03;;;;;;;1.20;1.10;;;;;;;;;;5065796;28;20452;-71
2022/09/04 12:55:35;;;;;;;1.80;1.23;;;;;;;;;;5068078;28;20544;-71
2022/09/04 12:58:10;;;;;;;1.50;1.40;;;;;;;;;;5067628;28;20770;-71
2022/09/04 13:00:40;;;;;;;1.50;1.40;;;;;;;;;;5066457;28;20441;-72
2022/09/04 13:03:16;;;;;;;1.67;1.57;;;;;;;;;;5067413;28;20452;-71
2022/09/04 13:05:50;;;;;;;1.30;1.20;;;;;;;;;;5068157;28;20446;-72
2022/09/04 13:08:22;;;;;;;1.80;1.47;;;;;;;;;;5067920;28;20445;-72
2022/09/04 13:10:58;;;;;;;1.67;1.57;;;;;;;;;;5059820;28;20933;-71
2022/09/04 13:13:30;;;;;;;1.67;1.00;;;;;;;;;;5067841;28;20440;-72
2022/09/04 13:15:59;;;;;;;2.37;1.17;;;;;;;;;;5067433;28;20526;-71
2022/09/04 13:18:40;;;;;;;1.33;1.20;;;;;;;;;;5065427;28;20463;-71
2022/09/04 13:21:15;;;;;;;1.33;1.20;;;;;;;;;;5066951;28;20502;-71
2022/09/04 13:23:51;;;;;;;1.07;0.93;;;;;;;;;;5067443;28;20960;-71
2022/09/04 13:26:29;;;;;;;1.50;1.20;;;;;;;;;;5067217;28;20472;-72
2022/09/04 13:29:03;;;;;;;1.10;1.00;;;;;;;;;;5067303;28;20460;-72
2022/09/04 13:31:42;;;;;;;1.20;1.10;;;;;;;;;;5067111;28;20445;-72
2022/09/04 13:34:14;;;;;;;1.20;1.10;;;;;;;;;;5067523;28;20452;-72
2022/09/04 13:36:48;;;;;;;1.03;0.90;;;;;;;;;;5067799;28;20925;-71
2022/09/04 13:39:30;;;;;;;1.20;1.10;;;;;;;;;;5066588;28;20507;-71
2022/09/04 13:42:24;;;;;;;1.30;1.20;;;;;;;;;;5053994;28;20453;-72
2022/09/04 13:45:04;;;;;;;2.23;1.80;;;;;;;;;;5012298;28;20462;-73
2022/09/04 13:47:35;;;;;;;1.27;1.17;;;;;;;;;;5064020;28;20441;-71
2022/09/04 13:50:08;;;;;;;1.73;1.27;;;;;;;;;;5066834;28;20460;-72
2022/09/04 13:52:39;;;;;;;1.17;1.07;;;;;;;;;;5067333;28;20441;-72
2022/09/04 13:55:08;;;;;;;2.43;1.30;;;;;;;;;;5067606;28;20453;-72
2022/09/04 13:57:38;;;;;;;1.50;1.40;;;;;;;;;;5068195;28;20869;-71
2022/09/04 14:00:07;;;;;;;1.73;1.33;;;;;;;;;;5070175;28;20484;-72
2022/09/04 14:02:37;;;;;;;2.90;1.27;;;;;;;;;;5070896;28;20449;-71
2022/09/04 14:05:10;;;;;;;1.27;1.17;;;;;;;;;;5070826;28;20472;-72
2022/09/04 14:07:38;;;;;;;1.30;1.00;;;;;;;;;;5071039;28;20451;-72
2022/09/04 14:10:09;;;;;;;1.27;1.17;;;;;;;;;;5070134;28;20485;-72
2022/09/04 14:12:43;;;;;;;1.20;1.10;;;;;;;;;;5070680;28;20801;-71
2022/09/04 14:15:24;;;;;;;1.57;1.33;;;;;;;;;;5070155;28;20393;-71
2022/09/04 14:17:56;;;;;;;1.30;1.13;;;;;;;;;;5070608;28;20199;-73
2022/09/04 14:20:27;;;;;;;1.20;1.10;;;;;;;;;;5068803;28;20511;-72
2022/09/04 14:22:58;;;;;;;1.53;1.20;;;;;;;;;;5070450;28;20460;-72
2022/09/04 14:25:30;;;;;;;1.50;1.40;;;;;;;;;;5070266;28;20488;-71
2022/09/04 14:28:02;;;;;;;1.60;1.40;;;;;;;;;;5069965;28;20449;-72
2022/09/04 14:30:32;;;;;;;2.97;1.53;;;;;;;;;;5069976;28;20198;-72
2022/09/04 14:33:09;;;;;;;1.80;1.40;;;;;;;;;;5069872;28;20452;-71
2022/09/04 14:35:45;;;;;;;1.70;1.60;;;;;;;;;;5070551;28;20492;-72
2022/09/04 14:38:26;;;;;;;1.40;1.30;;;;;;;;;;5065435;28;20463;-72
2022/09/04 14:40:59;;;;;;;1.30;1.20;;;;;;;;;;5066167;28;20487;-72
2022/09/04 14:43:30;;;;;;;1.13;1.00;;;;;;;;;;5068841;28;20499;-71
2022/09/04 14:46:08;;;;;;;1.60;1.30;;;;;;;;;;5067379;28;20850;-72
2022/09/04 14:48:39;;;;;;;2.17;1.30;;;;;;;;;;5065568;28;21125;-73
2022/09/04 14:51:14;;;;;;;2.17;1.20;;;;;;;;;;5066163;28;20548;-72
2022/09/04 14:53:46;;;;;;;3.30;1.40;;;;;;;;;;5066616;28;20517;-72
2022/09/04 14:56:21;;;;;;;1.63;1.52;;;;;;;;;;5064715;28;20457;-72
2022/09/04 14:58:54;;;;;;;2.10;1.50;;;22.50;1.00;;;;;;5066715;28;20203;-72
2022/09/04 15:01:23;;;;;;;1.50;1.40;;;30.90;1.00;;;;;;5066953;28;20205;-72
2022/09/04 15:03:56;;;;;;;1.58;1.48;;;29.80;1.00;;;;;;5064240;28;20198;-74
2022/09/04 15:06:29;;;;;;;1.33;1.23;;;30.00;1.00;;;;;;5067375;28;20945;-73
2022/09/04 15:08:57;;;;;;;1.77;1.58;;;30.80;1.00;;;;;;5066610;28;20285;-70
2022/09/04 15:11:32;;;;;;;1.98;1.15;;;31.50;1.00;;;;;;5066523;28;20293;-73
2022/09/04 15:14:03;;;;;;;1.30;1.20;;;31.50;1.00;;;;;;5067764;28;20201;-72
2022/09/04 15:16:45;;;;;;;1.33;1.10;;;31.50;1.00;;;;;;5067844;28;20632;-69
2022/09/04 15:19:27;;;;;;;2.78;1.60;;;31.60;1.00;;;;;;5063835;28;20222;-70
2022/09/04 15:21:59;;;;;;;1.60;1.50;;;31.80;1.00;;;;;;5067704;28;20759;-71
2022/09/04 15:24:33;;;;;;;2.20;1.67;;;32.60;1.00;;;;;;5062130;28;20239;-71
2022/09/04 15:27:11;;;;;;;1.77;1.67;;;32.40;1.00;;;;;;5071984;28;20203;-71
2022/09/04 15:29:46;;;;;;;1.50;1.40;;;32.90;1.00;;;;;;5067749;28;20207;-71